sensor_id;sensor_type;location;lat;lon;timestamp;P1;durP1;ratioP1;P2;durP2;ratioP2
71423;SDS011;59240;51.370;-0.486;2022-08-04T00:05:37;4.05;;;2.10;;
71423;SDS011;59240;51.370;-0.486;2022-08-04T00:08:29;7.63;;;2.55;;
71423;SDS011;59240;51.370;-0.486;2022-08-04T00:11:02;4.55;;;2.20;;
71423;SDS011;59240;51.370;-0.486;2022-08-04T00:13:30;4.95;;;2.15;;
71423;SDS011;59240;51.370;-0.486;2022-08-04T00:16:04;7.50;;;2.42;;
71423;SDS011;59240;51.370;-0.486;2022-08-04T00:18:34;6.68;;;2.50;;
71423;SDS011;59240;51.370;-0.486;2022-08-04T00:21:11;5.55;;;2.20;;
71423;SDS011;59240;51.370;-0.486;2022-08-04T00:23:42;4.38;;;2.00;;
71423;SDS011;59240;51.370;-0.486;2022-08-04T00:26:30;8.90;;;2.30;;
71423;SDS011;59240;51.370;-0.486;2022-08-04T00:28:58;4.85;;;2.20;;
71423;SDS011;59240;51.370;-0.486;2022-08-04T00:31:25;5.40;;;2.08;;
71423;SDS011;59240;51.370;-0.486;2022-08-04T00:34:13;5.38;;;2.50;;
71423;SDS011;59240;51.370;-0.486;2022-08-04T00:36:43;6.80;;;2.25;;
71423;SDS011;59240;51.370;-0.486;2022-08-04T00:39:11;5.57;;;2.38;;
71423;SDS011;59240;51.370;-0.486;2022-08-04T01:01:05;6.53;;;2.10;;
71423;SDS011;59240;51.370;-0.486;2022-08-04T01:06:21;7.43;;;2.20;;
71423;SDS011;59240;51.370;-0.486;2022-08-04T01:17:23;5.43;;;2.00;;
71423;SDS011;59240;51.370;-0.486;2022-08-04T01:19:58;5.38;;;2.30;;
71423;SDS011;59240;51.370;-0.486;2022-08-04T01:28:28;5.35;;;1.80;;
71423;SDS011;59240;51.370;-0.486;2022-08-04T01:31:27;6.90;;;2.00;;
71423;SDS011;59240;51.370;-0.486;2022-08-04T01:34:18;5.72;;;2.10;;
71423;SDS011;59240;51.370;-0.486;2022-08-04T01:37:04;6.50;;;2.10;;
71423;SDS011;59240;51.370;-0.486;2022-08-04T01:39:41;5.35;;;2.05;;
71423;SDS011;59240;51.370;-0.486;2022-08-04T01:42:16;6.40;;;2.40;;
71423;SDS011;59240;51.370;-0.486;2022-08-04T01:44:57;6.93;;;2.13;;
71423;SDS011;59240;51.370;-0.486;2022-08-04T01:47:28;4.88;;;2.28;;
71423;SDS011;59240;51.370;-0.486;2022-08-04T01:50:14;9.93;;;2.47;;
71423;SDS011;59240;51.370;-0.486;2022-08-04T01:52:41;8.00;;;2.05;;
71423;SDS011;59240;51.370;-0.486;2022-08-04T01:55:16;7.75;;;2.17;;
71423;SDS011;59240;51.370;-0.486;2022-08-04T01:57:44;9.77;;;2.17;;
71423;SDS011;59240;51.370;-0.486;2022-08-04T02:00:16;6.55;;;2.10;;
71423;SDS011;59240;51.370;-0.486;2022-08-04T02:02:45;7.03;;;2.45;;
71423;SDS011;59240;51.370;-0.486;2022-08-04T02:05:14;6.47;;;2.70;;
71423;SDS011;59240;51.370;-0.486;2022-08-04T02:10:53;7.28;;;2.28;;
71423;SDS011;59240;51.370;-0.486;2022-08-04T02:13:38;8.27;;;2.10;;
71423;SDS011;59240;51.370;-0.486;2022-08-04T02:16:28;7.60;;;2.30;;
71423;SDS011;59240;51.370;-0.486;2022-08-04T02:21:42;7.13;;;2.10;;
71423;SDS011;59240;51.370;-0.486;2022-08-04T02:24:14;7.22;;;2.38;;
71423;SDS011;59240;51.370;-0.486;2022-08-04T02:26:45;6.32;;;2.33;;
71423;SDS011;59240;51.370;-0.486;2022-08-04T02:29:38;5.03;;;1.90;;
71423;SDS011;59240;51.370;-0.486;2022-08-04T02:32:21;7.43;;;2.33;;
71423;SDS011;59240;51.370;-0.486;2022-08-04T02:37:33;7.60;;;2.20;;
71423;SDS011;59240;51.370;-0.486;2022-08-04T02:40:01;8.80;;;2.50;;
71423;SDS011;59240;51.370;-0.486;2022-08-04T02:42:31;4.80;;;1.98;;
71423;SDS011;59240;51.370;-0.486;2022-08-04T02:44:58;8.10;;;2.00;;
71423;SDS011;59240;51.370;-0.486;2022-08-04T02:47:27;8.02;;;2.30;;
71423;SDS011;59240;51.370;-0.486;2022-08-04T02:50:14;9.45;;;2.15;;
71423;SDS011;59240;51.370;-0.486;2022-08-04T02:52:55;6.32;;;1.77;;
71423;SDS011;59240;51.370;-0.486;2022-08-04T02:55:23;5.75;;;1.85;;
71423;SDS011;59240;51.370;-0.486;2022-08-04T02:57:52;8.57;;;2.30;;
71423;SDS011;59240;51.370;-0.486;2022-08-04T03:00:21;7.35;;;2.20;;
71423;SDS011;59240;51.370;-0.486;2022-08-04T03:16:38;10.90;;;2.17;;
71423;SDS011;59240;51.370;-0.486;2022-08-04T03:27:53;7.60;;;2.33;;
71423;SDS011;59240;51.370;-0.486;2022-08-04T03:45:10;8.80;;;2.15;;
71423;SDS011;59240;51.370;-0.486;2022-08-04T03:51:26;11.68;;;2.63;;
71423;SDS011;59240;51.370;-0.486;2022-08-04T04:05:17;8.60;;;2.55;;
71423;SDS011;59240;51.370;-0.486;2022-08-04T04:10:43;11.10;;;2.22;;
71423;SDS011;59240;51.370;-0.486;2022-08-04T04:27:37;12.38;;;2.88;;
71423;SDS011;59240;51.370;-0.486;2022-08-04T04:30:22;7.25;;;2.40;;
71423;SDS011;59240;51.370;-0.486;2022-08-04T04:46:45;10.57;;;2.72;;
71423;SDS011;59240;51.370;-0.486;2022-08-04T04:54:18;16.42;;;2.58;;
71423;SDS011;59240;51.370;-0.486;2022-08-04T04:56:54;9.45;;;2.20;;
71423;SDS011;59240;51.370;-0.486;2022-08-04T04:59:57;10.27;;;2.60;;
71423;SDS011;59240;51.370;-0.486;2022-08-04T05:11:29;6.45;;;2.08;;
71423;SDS011;59240;51.370;-0.486;2022-08-04T05:14:00;10.15;;;2.20;;
71423;SDS011;59240;51.370;-0.486;2022-08-04T05:17:11;15.18;;;2.85;;
71423;SDS011;59240;51.370;-0.486;2022-08-04T05:22:12;11.38;;;3.15;;
71423;SDS011;59240;51.370;-0.486;2022-08-04T05:25:02;11.75;;;2.60;;
71423;SDS011;59240;51.370;-0.486;2022-08-04T05:27:35;10.00;;;2.30;;
71423;SDS011;59240;51.370;-0.486;2022-08-04T05:30:06;7.47;;;2.53;;
71423;SDS011;59240;51.370;-0.486;2022-08-04T05:32:37;11.30;;;2.35;;
71423;SDS011;59240;51.370;-0.486;2022-08-04T05:35:10;9.98;;;2.55;;
71423;SDS011;59240;51.370;-0.486;2022-08-04T05:38:01;7.82;;;2.50;;
71423;SDS011;59240;51.370;-0.486;2022-08-04T05:40:29;10.40;;;2.28;;
71423;SDS011;59240;51.370;-0.486;2022-08-04T05:42:56;10.30;;;2.22;;
71423;SDS011;59240;51.370;-0.486;2022-08-04T05:45:24;7.00;;;2.25;;
71423;SDS011;59240;51.370;-0.486;2022-08-04T05:47:52;8.63;;;2.38;;
71423;SDS011;59240;51.370;-0.486;2022-08-04T05:50:19;8.68;;;2.38;;
71423;SDS011;59240;51.370;-0.486;2022-08-04T05:52:47;9.02;;;2.30;;
71423;SDS011;59240;51.370;-0.486;2022-08-04T05:55:23;9.30;;;2.58;;
71423;SDS011;59240;51.370;-0.486;2022-08-04T05:58:11;7.82;;;2.35;;
71423;SDS011;59240;51.370;-0.486;2022-08-04T06:00:39;13.00;;;2.80;;
71423;SDS011;59240;51.370;-0.486;2022-08-04T06:03:18;8.15;;;2.40;;
71423;SDS011;59240;51.370;-0.486;2022-08-04T06:05:46;8.93;;;2.65;;
71423;SDS011;59240;51.370;-0.486;2022-08-04T06:08:13;9.90;;;2.33;;
71423;SDS011;59240;51.370;-0.486;2022-08-04T06:10:40;8.63;;;2.20;;
71423;SDS011;59240;51.370;-0.486;2022-08-04T06:13:10;10.18;;;2.47;;
71423;SDS011;59240;51.370;-0.486;2022-08-04T06:15:59;9.05;;;2.88;;
71423;SDS011;59240;51.370;-0.486;2022-08-04T06:18:28;8.93;;;2.40;;
71423;SDS011;59240;51.370;-0.486;2022-08-04T06:21:00;9.80;;;2.33;;
71423;SDS011;59240;51.370;-0.486;2022-08-04T06:23:41;9.68;;;2.33;;
71423;SDS011;59240;51.370;-0.486;2022-08-04T06:26:27;11.95;;;3.00;;
71423;SDS011;59240;51.370;-0.486;2022-08-04T06:28:57;9.30;;;2.40;;
71423;SDS011;59240;51.370;-0.486;2022-08-04T06:31:25;11.70;;;2.95;;
71423;SDS011;59240;51.370;-0.486;2022-08-04T06:34:31;10.15;;;2.30;;
71423;SDS011;59240;51.370;-0.486;2022-08-04T06:36:59;10.18;;;2.35;;
71423;SDS011;59240;51.370;-0.486;2022-08-04T06:39:27;14.13;;;2.88;;
71423;SDS011;59240;51.370;-0.486;2022-08-04T06:41:55;10.43;;;2.40;;
71423;SDS011;59240;51.370;-0.486;2022-08-04T06:44:42;5.57;;;2.08;;
71423;SDS011;59240;51.370;-0.486;2022-08-04T06:47:11;10.88;;;2.47;;
71423;SDS011;59240;51.370;-0.486;2022-08-04T06:49:39;6.50;;;2.17;;
71423;SDS011;59240;51.370;-0.486;2022-08-04T06:52:27;8.27;;;2.17;;
71423;SDS011;59240;51.370;-0.486;2022-08-04T06:54:55;8.02;;;2.67;;
71423;SDS011;59240;51.370;-0.486;2022-08-04T06:57:26;6.25;;;1.98;;
71423;SDS011;59240;51.370;-0.486;2022-08-04T07:00:08;7.47;;;1.85;;
71423;SDS011;59240;51.370;-0.486;2022-08-04T07:02:38;5.57;;;1.98;;
71423;SDS011;59240;51.370;-0.486;2022-08-04T07:05:09;6.80;;;2.00;;
71423;SDS011;59240;51.370;-0.486;2022-08-04T07:07:37;9.60;;;2.03;;
71423;SDS011;59240;51.370;-0.486;2022-08-04T07:10:23;6.18;;;1.85;;
71423;SDS011;59240;51.370;-0.486;2022-08-04T07:12:53;14.35;;;2.47;;
71423;SDS011;59240;51.370;-0.486;2022-08-04T07:15:21;6.25;;;2.20;;
71423;SDS011;59240;51.370;-0.486;2022-08-04T07:17:50;10.25;;;2.53;;
71423;SDS011;59240;51.370;-0.486;2022-08-04T07:20:17;5.38;;;2.08;;
71423;SDS011;59240;51.370;-0.486;2022-08-04T07:23:04;7.88;;;2.05;;
71423;SDS011;59240;51.370;-0.486;2022-08-04T07:25:34;8.15;;;2.20;;
71423;SDS011;59240;51.370;-0.486;2022-08-04T07:28:24;7.50;;;2.00;;
71423;SDS011;59240;51.370;-0.486;2022-08-04T07:30:53;5.80;;;1.90;;
71423;SDS011;59240;51.370;-0.486;2022-08-04T07:33:21;7.88;;;1.65;;
71423;SDS011;59240;51.370;-0.486;2022-08-04T07:35:49;8.65;;;2.10;;
71423;SDS011;59240;51.370;-0.486;2022-08-04T07:38:34;5.65;;;1.90;;
71423;SDS011;59240;51.370;-0.486;2022-08-04T07:41:11;12.10;;;2.78;;
71423;SDS011;59240;51.370;-0.486;2022-08-04T07:43:58;13.52;;;1.83;;
71423;SDS011;59240;51.370;-0.486;2022-08-04T07:46:24;11.75;;;2.65;;
71423;SDS011;59240;51.370;-0.486;2022-08-04T07:48:56;4.72;;;1.67;;
71423;SDS011;59240;51.370;-0.486;2022-08-04T07:51:24;8.13;;;1.98;;
71423;SDS011;59240;51.370;-0.486;2022-08-04T07:53:51;9.35;;;2.08;;
71423;SDS011;59240;51.370;-0.486;2022-08-04T07:56:22;5.55;;;2.08;;
71423;SDS011;59240;51.370;-0.486;2022-08-04T07:58:48;9.20;;;2.03;;
71423;SDS011;59240;51.370;-0.486;2022-08-04T08:01:15;9.57;;;2.40;;
71423;SDS011;59240;51.370;-0.486;2022-08-04T08:03:44;6.40;;;2.00;;
71423;SDS011;59240;51.370;-0.486;2022-08-04T08:06:11;5.80;;;2.22;;
71423;SDS011;59240;51.370;-0.486;2022-08-04T08:08:57;5.53;;;1.85;;
71423;SDS011;59240;51.370;-0.486;2022-08-04T08:11:42;5.70;;;2.00;;
71423;SDS011;59240;51.370;-0.486;2022-08-04T08:14:34;5.32;;;1.80;;
71423;SDS011;59240;51.370;-0.486;2022-08-04T08:17:01;7.45;;;1.92;;
71423;SDS011;59240;51.370;-0.486;2022-08-04T08:19:32;7.57;;;2.17;;
71423;SDS011;59240;51.370;-0.486;2022-08-04T08:22:00;4.25;;;1.85;;
71423;SDS011;59240;51.370;-0.486;2022-08-04T08:24:28;8.30;;;1.70;;
71423;SDS011;59240;51.370;-0.486;2022-08-04T08:26:55;6.35;;;1.80;;
71423;SDS011;59240;51.370;-0.486;2022-08-04T08:29:23;6.82;;;1.58;;
71423;SDS011;59240;51.370;-0.486;2022-08-04T08:31:51;3.97;;;1.58;;
71423;SDS011;59240;51.370;-0.486;2022-08-04T08:34:24;5.22;;;1.88;;
71423;SDS011;59240;51.370;-0.486;2022-08-04T08:51:18;5.82;;;1.77;;
71423;SDS011;59240;51.370;-0.486;2022-08-04T09:02:51;3.90;;;1.42;;
71423;SDS011;59240;51.370;-0.486;2022-08-04T09:05:39;6.55;;;1.60;;
71423;SDS011;59240;51.370;-0.486;2022-08-04T09:14:00;11.90;;;1.57;;
71423;SDS011;59240;51.370;-0.486;2022-08-04T09:16:41;5.25;;;1.60;;
71423;SDS011;59240;51.370;-0.486;2022-08-04T09:19:16;5.25;;;1.80;;
71423;SDS011;59240;51.370;-0.486;2022-08-04T09:22:12;3.97;;;1.58;;
71423;SDS011;59240;51.370;-0.486;2022-08-04T09:24:59;7.18;;;1.80;;
71423;SDS011;59240;51.370;-0.486;2022-08-04T09:30:06;4.20;;;1.65;;
71423;SDS011;59240;51.370;-0.486;2022-08-04T09:38:55;8.13;;;1.63;;
71423;SDS011;59240;51.370;-0.486;2022-08-04T09:47:23;6.53;;;1.70;;
71423;SDS011;59240;51.370;-0.486;2022-08-04T09:53:19;5.15;;;1.77;;
71423;SDS011;59240;51.370;-0.486;2022-08-04T09:56:08;5.82;;;1.60;;
71423;SDS011;59240;51.370;-0.486;2022-08-04T09:58:51;5.22;;;1.50;;
71423;SDS011;59240;51.370;-0.486;2022-08-04T10:01:27;6.70;;;1.67;;
71423;SDS011;59240;51.370;-0.486;2022-08-04T10:04:07;10.98;;;1.70;;
71423;SDS011;59240;51.370;-0.486;2022-08-04T10:21:02;3.90;;;1.48;;
71423;SDS011;59240;51.370;-0.486;2022-08-04T10:26:41;6.32;;;1.52;;
71423;SDS011;59240;51.370;-0.486;2022-08-04T10:29:18;5.55;;;1.60;;
71423;SDS011;59240;51.370;-0.486;2022-08-04T10:34:47;6.75;;;1.88;;
71423;SDS011;59240;51.370;-0.486;2022-08-04T10:37:39;5.85;;;1.80;;
71423;SDS011;59240;51.370;-0.486;2022-08-04T10:40:34;3.25;;;1.25;;
71423;SDS011;59240;51.370;-0.486;2022-08-04T10:43:23;4.38;;;1.65;;
71423;SDS011;59240;51.370;-0.486;2022-08-04T10:46:11;4.07;;;1.20;;
71423;SDS011;59240;51.370;-0.486;2022-08-04T10:48:59;3.80;;;1.20;;
71423;SDS011;59240;51.370;-0.486;2022-08-04T10:51:46;3.45;;;1.30;;
71423;SDS011;59240;51.370;-0.486;2022-08-04T10:54:55;4.50;;;1.45;;
71423;SDS011;59240;51.370;-0.486;2022-08-04T10:57:32;6.78;;;1.60;;
71423;SDS011;59240;51.370;-0.486;2022-08-04T11:02:40;2.13;;;1.33;;
71423;SDS011;59240;51.370;-0.486;2022-08-04T11:07:35;4.35;;;1.30;;
71423;SDS011;59240;51.370;-0.486;2022-08-04T11:10:05;4.50;;;1.48;;
71423;SDS011;59240;51.370;-0.486;2022-08-04T11:12:33;4.28;;;1.20;;
71423;SDS011;59240;51.370;-0.486;2022-08-04T11:15:03;4.55;;;1.30;;
71423;SDS011;59240;51.370;-0.486;2022-08-04T11:17:46;4.25;;;1.35;;
71423;SDS011;59240;51.370;-0.486;2022-08-04T11:20:43;3.15;;;1.20;;
71423;SDS011;59240;51.370;-0.486;2022-08-04T11:23:19;3.97;;;1.63;;
71423;SDS011;59240;51.370;-0.486;2022-08-04T11:25:55;3.45;;;1.23;;
71423;SDS011;59240;51.370;-0.486;2022-08-04T11:28:36;4.40;;;1.35;;
71423;SDS011;59240;51.370;-0.486;2022-08-04T11:31:29;4.18;;;1.23;;
71423;SDS011;59240;51.370;-0.486;2022-08-04T11:37:05;1.95;;;1.10;;
71423;SDS011;59240;51.370;-0.486;2022-08-04T11:42:28;4.50;;;1.38;;
71423;SDS011;59240;51.370;-0.486;2022-08-04T11:44:59;11.50;;;1.50;;
71423;SDS011;59240;51.370;-0.486;2022-08-04T11:47:32;2.00;;;1.00;;
71423;SDS011;59240;51.370;-0.486;2022-08-04T11:53:07;7.93;;;1.42;;
71423;SDS011;59240;51.370;-0.486;2022-08-04T11:55:43;2.90;;;1.23;;
71423;SDS011;59240;51.370;-0.486;2022-08-04T11:58:34;1.75;;;1.02;;
71423;SDS011;59240;51.370;-0.486;2022-08-04T12:09:43;3.30;;;1.15;;
71423;SDS011;59240;51.370;-0.486;2022-08-04T12:12:27;2.35;;;1.00;;
71423;SDS011;59240;51.370;-0.486;2022-08-04T12:15:17;2.83;;;1.13;;
71423;SDS011;59240;51.370;-0.486;2022-08-04T12:20:50;2.40;;;0.93;;
71423;SDS011;59240;51.370;-0.486;2022-08-04T12:23:25;4.47;;;1.52;;
71423;SDS011;59240;51.370;-0.486;2022-08-04T12:25:59;3.47;;;1.10;;
71423;SDS011;59240;51.370;-0.486;2022-08-04T12:28:31;2.97;;;1.27;;
71423;SDS011;59240;51.370;-0.486;2022-08-04T12:31:28;4.07;;;1.25;;
71423;SDS011;59240;51.370;-0.486;2022-08-04T12:37:01;7.40;;;4.10;;
71423;SDS011;59240;51.370;-0.486;2022-08-04T12:39:32;4.78;;;2.80;;
71423;SDS011;59240;51.370;-0.486;2022-08-04T12:42:23;5.63;;;1.52;;
71423;SDS011;59240;51.370;-0.486;2022-08-04T12:44:56;5.13;;;1.10;;
71423;SDS011;59240;51.370;-0.486;2022-08-04T12:47:24;4.10;;;1.42;;
71423;SDS011;59240;51.370;-0.486;2022-08-04T12:49:56;3.80;;;1.05;;
71423;SDS011;59240;51.370;-0.486;2022-08-04T12:52:30;2.15;;;1.00;;
71423;SDS011;59240;51.370;-0.486;2022-08-04T12:55:23;6.78;;;1.20;;
71423;SDS011;59240;51.370;-0.486;2022-08-04T12:57:53;0.77;;;0.70;;
71423;SDS011;59240;51.370;-0.486;2022-08-04T13:00:25;2.65;;;1.13;;
71423;SDS011;59240;51.370;-0.486;2022-08-04T13:03:06;3.40;;;0.93;;
71423;SDS011;59240;51.370;-0.486;2022-08-04T13:05:38;3.22;;;0.90;;
71423;SDS011;59240;51.370;-0.486;2022-08-04T13:08:06;2.97;;;1.10;;
71423;SDS011;59240;51.370;-0.486;2022-08-04T13:10:40;2.88;;;1.00;;
71423;SDS011;59240;51.370;-0.486;2022-08-04T13:13:15;1.23;;;0.82;;
71423;SDS011;59240;51.370;-0.486;2022-08-04T13:15:54;1.20;;;0.85;;
71423;SDS011;59240;51.370;-0.486;2022-08-04T13:18:23;3.47;;;0.95;;
71423;SDS011;59240;51.370;-0.486;2022-08-04T13:21:06;3.25;;;1.05;;
71423;SDS011;59240;51.370;-0.486;2022-08-04T13:23:47;2.42;;;1.10;;
71423;SDS011;59240;51.370;-0.486;2022-08-04T13:26:35;2.17;;;0.90;;
71423;SDS011;59240;51.370;-0.486;2022-08-04T13:29:19;2.45;;;1.05;;
71423;SDS011;59240;51.370;-0.486;2022-08-04T13:32:07;2.85;;;1.10;;
71423;SDS011;59240;51.370;-0.486;2022-08-04T13:34:35;2.97;;;0.88;;
71423;SDS011;59240;51.370;-0.486;2022-08-04T13:37:14;5.68;;;1.40;;
71423;SDS011;59240;51.370;-0.486;2022-08-04T13:39:47;2.92;;;1.10;;
71423;SDS011;59240;51.370;-0.486;2022-08-04T13:42:21;2.92;;;1.08;;
71423;SDS011;59240;51.370;-0.486;2022-08-04T13:44:52;4.38;;;1.10;;
71423;SDS011;59240;51.370;-0.486;2022-08-04T13:47:23;2.15;;;1.00;;
71423;SDS011;59240;51.370;-0.486;2022-08-04T13:50:07;1.88;;;1.05;;
71423;SDS011;59240;51.370;-0.486;2022-08-04T13:52:39;2.05;;;0.88;;
71423;SDS011;59240;51.370;-0.486;2022-08-04T13:55:42;2.13;;;0.75;;
71423;SDS011;59240;51.370;-0.486;2022-08-04T14:00:46;5.38;;;1.20;;
71423;SDS011;59240;51.370;-0.486;2022-08-04T14:03:36;3.08;;;1.17;;
71423;SDS011;59240;51.370;-0.486;2022-08-04T14:06:22;6.53;;;1.50;;
71423;SDS011;59240;51.370;-0.486;2022-08-04T14:08:55;1.77;;;0.82;;
71423;SDS011;59240;51.370;-0.486;2022-08-04T14:16:56;3.83;;;1.10;;
71423;SDS011;59240;51.370;-0.486;2022-08-04T14:24:55;2.42;;;1.10;;
71423;SDS011;59240;51.370;-0.486;2022-08-04T14:27:25;3.47;;;1.10;;
71423;SDS011;59240;51.370;-0.486;2022-08-04T14:29:54;3.63;;;1.40;;
71423;SDS011;59240;51.370;-0.486;2022-08-04T14:32:20;2.17;;;1.00;;
71423;SDS011;59240;51.370;-0.486;2022-08-04T14:34:51;4.13;;;1.15;;
71423;SDS011;59240;51.370;-0.486;2022-08-04T14:37:18;2.78;;;1.10;;
71423;SDS011;59240;51.370;-0.486;2022-08-04T14:39:51;4.47;;;1.38;;
71423;SDS011;59240;51.370;-0.486;2022-08-04T14:42:44;4.07;;;1.23;;
71423;SDS011;59240;51.370;-0.486;2022-08-04T14:45:40;2.08;;;0.85;;
71423;SDS011;59240;51.370;-0.486;2022-08-04T14:48:20;2.85;;;1.13;;
71423;SDS011;59240;51.370;-0.486;2022-08-04T14:50:47;2.80;;;1.00;;
71423;SDS011;59240;51.370;-0.486;2022-08-04T14:53:19;5.90;;;1.40;;
71423;SDS011;59240;51.370;-0.486;2022-08-04T14:55:48;3.42;;;1.05;;
71423;SDS011;59240;51.370;-0.486;2022-08-04T14:58:20;3.13;;;1.00;;
71423;SDS011;59240;51.370;-0.486;2022-08-04T15:01:04;6.43;;;1.40;;
71423;SDS011;59240;51.370;-0.486;2022-08-04T15:03:38;2.22;;;0.85;;
71423;SDS011;59240;51.370;-0.486;2022-08-04T15:06:17;2.80;;;1.10;;
71423;SDS011;59240;51.370;-0.486;2022-08-04T15:08:48;3.47;;;1.20;;
71423;SDS011;59240;51.370;-0.486;2022-08-04T15:11:16;3.88;;;1.02;;
71423;SDS011;59240;51.370;-0.486;2022-08-04T15:13:49;3.67;;;1.00;;
71423;SDS011;59240;51.370;-0.486;2022-08-04T15:16:20;2.78;;;1.00;;
71423;SDS011;59240;51.370;-0.486;2022-08-04T15:18:48;2.47;;;0.90;;
71423;SDS011;59240;51.370;-0.486;2022-08-04T15:21:17;4.10;;;1.15;;
71423;SDS011;59240;51.370;-0.486;2022-08-04T15:23:46;1.70;;;0.82;;
71423;SDS011;59240;51.370;-0.486;2022-08-04T15:26:16;4.10;;;1.00;;
71423;SDS011;59240;51.370;-0.486;2022-08-04T15:28:50;3.75;;;1.10;;
71423;SDS011;59240;51.370;-0.486;2022-08-04T15:31:21;4.03;;;1.10;;
71423;SDS011;59240;51.370;-0.486;2022-08-04T15:34:09;3.47;;;1.02;;
71423;SDS011;59240;51.370;-0.486;2022-08-04T15:36:39;2.08;;;0.95;;
71423;SDS011;59240;51.370;-0.486;2022-08-04T15:41:52;1.83;;;0.90;;
71423;SDS011;59240;51.370;-0.486;2022-08-04T15:47:08;1.83;;;0.95;;
71423;SDS011;59240;51.370;-0.486;2022-08-04T15:49:38;3.58;;;0.90;;
71423;SDS011;59240;51.370;-0.486;2022-08-04T15:52:07;3.80;;;0.90;;
71423;SDS011;59240;51.370;-0.486;2022-08-04T15:54:38;2.88;;;1.00;;
71423;SDS011;59240;51.370;-0.486;2022-08-04T15:57:17;1.73;;;0.90;;
71423;SDS011;59240;51.370;-0.486;2022-08-04T16:00:21;7.78;;;1.10;;
71423;SDS011;59240;51.370;-0.486;2022-08-04T16:02:48;1.35;;;0.80;;
71423;SDS011;59240;51.370;-0.486;2022-08-04T16:07:56;4.15;;;0.93;;
71423;SDS011;59240;51.370;-0.486;2022-08-04T16:12:56;2.13;;;0.80;;
71423;SDS011;59240;51.370;-0.486;2022-08-04T16:18:19;1.40;;;0.88;;
71423;SDS011;59240;51.370;-0.486;2022-08-04T16:21:01;2.20;;;0.90;;
71423;SDS011;59240;51.370;-0.486;2022-08-04T16:29:23;2.60;;;1.00;;
71423;SDS011;59240;51.370;-0.486;2022-08-04T16:34:28;6.03;;;1.00;;
71423;SDS011;59240;51.370;-0.486;2022-08-04T16:37:15;2.10;;;1.00;;
71423;SDS011;59240;51.370;-0.486;2022-08-04T16:39:43;3.63;;;0.90;;
71423;SDS011;59240;51.370;-0.486;2022-08-04T16:45:37;4.22;;;0.80;;
71423;SDS011;59240;51.370;-0.486;2022-08-04T16:50:14;3.38;;;1.08;;
71423;SDS011;59240;51.370;-0.486;2022-08-04T16:52:51;1.75;;;0.75;;
71423;SDS011;59240;51.370;-0.486;2022-08-04T16:57:51;2.45;;;0.80;;
71423;SDS011;59240;51.370;-0.486;2022-08-04T17:00:33;3.42;;;0.75;;
71423;SDS011;59240;51.370;-0.486;2022-08-04T17:03:02;2.33;;;0.70;;
71423;SDS011;59240;51.370;-0.486;2022-08-04T17:05:30;3.47;;;0.50;;
71423;SDS011;59240;51.370;-0.486;2022-08-04T17:08:05;3.67;;;1.10;;
71423;SDS011;59240;51.370;-0.486;2022-08-04T17:10:53;4.38;;;0.90;;
71423;SDS011;59240;51.370;-0.486;2022-08-04T17:16:14;4.10;;;0.80;;
71423;SDS011;59240;51.370;-0.486;2022-08-04T17:18:45;3.20;;;0.70;;
71423;SDS011;59240;51.370;-0.486;2022-08-04T17:21:14;2.15;;;0.88;;
71423;SDS011;59240;51.370;-0.486;2022-08-04T17:23:53;2.03;;;0.93;;
71423;SDS011;59240;51.370;-0.486;2022-08-04T17:26:43;2.22;;;0.55;;
71423;SDS011;59240;51.370;-0.486;2022-08-04T17:29:20;3.38;;;0.95;;
71423;SDS011;59240;51.370;-0.486;2022-08-04T17:32:16;2.85;;;0.85;;
71423;SDS011;59240;51.370;-0.486;2022-08-04T17:34:50;5.20;;;1.10;;
71423;SDS011;59240;51.370;-0.486;2022-08-04T17:37:22;2.42;;;0.90;;
71423;SDS011;59240;51.370;-0.486;2022-08-04T17:40:07;6.80;;;1.65;;
71423;SDS011;59240;51.370;-0.486;2022-08-04T17:42:36;4.13;;;1.40;;
71423;SDS011;59240;51.370;-0.486;2022-08-04T17:47:56;6.47;;;1.33;;
71423;SDS011;59240;51.370;-0.486;2022-08-04T17:50:23;2.97;;;1.50;;
71423;SDS011;59240;51.370;-0.486;2022-08-04T17:53:02;3.85;;;1.00;;
71423;SDS011;59240;51.370;-0.486;2022-08-04T17:55:41;9.75;;;1.20;;
71423;SDS011;59240;51.370;-0.486;2022-08-04T17:58:33;5.07;;;0.85;;
71423;SDS011;59240;51.370;-0.486;2022-08-04T18:01:00;4.10;;;1.30;;
71423;SDS011;59240;51.370;-0.486;2022-08-04T18:03:47;2.53;;;1.23;;
71423;SDS011;59240;51.370;-0.486;2022-08-04T18:06:20;6.53;;;1.50;;
71423;SDS011;59240;51.370;-0.486;2022-08-04T18:08:53;7.38;;;1.10;;
71423;SDS011;59240;51.370;-0.486;2022-08-04T18:11:50;3.10;;;1.13;;
71423;SDS011;59240;51.370;-0.486;2022-08-04T18:14:17;1.88;;;1.08;;
71423;SDS011;59240;51.370;-0.486;2022-08-04T18:19:21;2.90;;;0.93;;
71423;SDS011;59240;51.370;-0.486;2022-08-04T18:21:47;7.13;;;1.63;;
71423;SDS011;59240;51.370;-0.486;2022-08-04T18:24:34;4.15;;;1.00;;
71423;SDS011;59240;51.370;-0.486;2022-08-04T18:27:21;4.18;;;0.90;;
71423;SDS011;59240;51.370;-0.486;2022-08-04T18:29:51;5.53;;;1.08;;
71423;SDS011;59240;51.370;-0.486;2022-08-04T18:32:38;3.50;;;1.08;;
71423;SDS011;59240;51.370;-0.486;2022-08-04T18:35:25;4.82;;;1.30;;
71423;SDS011;59240;51.370;-0.486;2022-08-04T18:38:13;4.32;;;0.98;;
71423;SDS011;59240;51.370;-0.486;2022-08-04T18:40:49;3.13;;;1.07;;
71423;SDS011;59240;51.370;-0.486;2022-08-04T18:43:19;6.22;;;1.60;;
71423;SDS011;59240;51.370;-0.486;2022-08-04T18:45:55;2.47;;;0.90;;
71423;SDS011;59240;51.370;-0.486;2022-08-04T18:48:24;2.90;;;1.60;;
71423;SDS011;59240;51.370;-0.486;2022-08-04T18:51:03;4.15;;;1.13;;
71423;SDS011;59240;51.370;-0.486;2022-08-04T18:56:24;4.32;;;0.90;;
71423;SDS011;59240;51.370;-0.486;2022-08-04T18:59:03;3.03;;;1.02;;
71423;SDS011;59240;51.370;-0.486;2022-08-04T19:01:35;5.13;;;1.15;;
71423;SDS011;59240;51.370;-0.486;2022-08-04T19:04:22;4.28;;;1.50;;
71423;SDS011;59240;51.370;-0.486;2022-08-04T19:07:02;3.50;;;1.15;;
71423;SDS011;59240;51.370;-0.486;2022-08-04T19:09:51;6.07;;;1.38;;
71423;SDS011;59240;51.370;-0.486;2022-08-04T19:12:23;5.80;;;1.42;;
71423;SDS011;59240;51.370;-0.486;2022-08-04T19:14:53;6.35;;;1.80;;
71423;SDS011;59240;51.370;-0.486;2022-08-04T19:17:34;4.03;;;1.10;;
71423;SDS011;59240;51.370;-0.486;2022-08-04T19:20:21;2.30;;;0.95;;
71423;SDS011;59240;51.370;-0.486;2022-08-04T19:22:51;2.60;;;1.25;;
71423;SDS011;59240;51.370;-0.486;2022-08-04T19:25:38;2.90;;;1.10;;
71423;SDS011;59240;51.370;-0.486;2022-08-04T19:28:26;1.92;;;0.90;;
71423;SDS011;59240;51.370;-0.486;2022-08-04T19:30:56;8.55;;;2.38;;
71423;SDS011;59240;51.370;-0.486;2022-08-04T19:33:23;4.03;;;1.30;;
71423;SDS011;59240;51.370;-0.486;2022-08-04T19:35:55;5.45;;;2.05;;
71423;SDS011;59240;51.370;-0.486;2022-08-04T19:38:22;4.25;;;1.90;;
71423;SDS011;59240;51.370;-0.486;2022-08-04T19:40:49;5.95;;;2.20;;
71423;SDS011;59240;51.370;-0.486;2022-08-04T19:46:09;6.68;;;1.50;;
71423;SDS011;59240;51.370;-0.486;2022-08-04T19:48:37;4.35;;;0.98;;
71423;SDS011;59240;51.370;-0.486;2022-08-04T19:51:04;3.35;;;1.08;;
71423;SDS011;59240;51.370;-0.486;2022-08-04T19:53:33;4.47;;;2.20;;
71423;SDS011;59240;51.370;-0.486;2022-08-04T19:56:19;6.75;;;1.17;;
71423;SDS011;59240;51.370;-0.486;2022-08-04T19:58:50;10.63;;;1.95;;
71423;SDS011;59240;51.370;-0.486;2022-08-04T20:01:18;4.55;;;1.38;;
71423;SDS011;59240;51.370;-0.486;2022-08-04T20:04:04;2.67;;;1.20;;
71423;SDS011;59240;51.370;-0.486;2022-08-04T20:06:35;2.60;;;1.40;;
71423;SDS011;59240;51.370;-0.486;2022-08-04T20:09:02;4.43;;;1.50;;
71423;SDS011;59240;51.370;-0.486;2022-08-04T20:11:49;6.60;;;1.60;;
71423;SDS011;59240;51.370;-0.486;2022-08-04T20:14:16;5.95;;;1.88;;
71423;SDS011;59240;51.370;-0.486;2022-08-04T20:16:43;3.15;;;1.50;;
71423;SDS011;59240;51.370;-0.486;2022-08-04T20:19:11;3.20;;;1.30;;
71423;SDS011;59240;51.370;-0.486;2022-08-04T20:21:39;4.45;;;1.02;;
71423;SDS011;59240;51.370;-0.486;2022-08-04T20:24:21;10.27;;;1.88;;
71423;SDS011;59240;51.370;-0.486;2022-08-04T20:27:07;3.17;;;1.75;;